TimeEST,TemperatureF,Dew PointF,Humidity,Sea Level PressureIn,VisibilityMPH,Wind Direction,Wind SpeedMPH,Gust SpeedMPH,PrecipitationIn,Events,Conditions,WindDirDegrees,DateUTC
12:51 AM,60.1,53.1,78,30.06,10.0,SSW,16.1,21.9,N/A,,Mostly Cloudy,200,2012-12-04 05:51:00
1:51 AM,61.0,53.1,75,30.06,10.0,South,16.1,25.3,N/A,,Mostly Cloudy,190,2012-12-04 06:51:00
2:51 AM,59.0,52.0,78,30.06,10.0,SSW,13.8,-,N/A,,Scattered Clouds,200,2012-12-04 07:51:00
3:51 AM,59.0,52.0,78,30.05,10.0,SSW,13.8,-,N/A,,Mostly Cloudy,200,2012-12-04 08:51:00
4:51 AM,59.0,51.1,75,30.04,10.0,South,13.8,-,N/A,,Mostly Cloudy,190,2012-12-04 09:51:00
5:51 AM,59.0,51.1,75,30.04,10.0,SSW,12.7,-,N/A,,Mostly Cloudy,200,2012-12-04 10:51:00
6:51 AM,57.9,50.0,75,30.04,10.0,South,13.8,-,N/A,,Mostly Cloudy,190,2012-12-04 11:51:00
7:51 AM,59.0,50.0,72,30.05,10.0,South,18.4,-,N/A,,Overcast,190,2012-12-04 12:51:00
8:51 AM,59.0,50.0,72,30.04,10.0,SSW,12.7,-,N/A,,Mostly Cloudy,200,2012-12-04 13:51:00
9:51 AM,60.8,50.0,68,30.04,10.0,South,15.0,21.9,N/A,,Overcast,190,2012-12-04 14:51:00
10:51 AM,61.0,51.1,70,30.03,10.0,SSW,15.0,20.7,N/A,,Overcast,200,2012-12-04 15:51:00
11:03 AM,60.8,51.8,72,30.03,10.0,SSW,16.1,-,N/A,,Overcast,200,2012-12-04 16:03:00
11:51 AM,61.0,51.1,70,30.01,10.0,SSW,11.5,-,N/A,,Overcast,200,2012-12-04 16:51:00
12:51 PM,61.0,52.0,72,29.99,10.0,SSW,11.5,-,N/A,,Overcast,200,2012-12-04 17:51:00
1:51 PM,57.9,54.0,87,29.97,5.0,SW,5.8,-,0.03,Rain,Light Rain,220,2012-12-04 18:51:00
2:41 PM,55.4,51.8,88,29.98,3.0,WNW,15.0,-,0.03,Rain,Light Rain,300,2012-12-04 19:41:00
2:51 PM,53.1,51.1,93,29.99,2.5,NW,15.0,-,0.05,Rain,Rain,310,2012-12-04 19:51:00
3:39 PM,48.2,48.2,100,30.00,1.5,NW,11.5,-,0.16,Rain,Heavy Rain,320,2012-12-04 20:39:00
3:49 PM,48.2,48.2,100,30.01,3.0,NW,6.9,-,0.20,Rain,Light Rain,320,2012-12-04 20:49:00
3:51 PM,48.9,48.0,97,30.01,3.0,NW,9.2,-,0.20,Rain,Rain,320,2012-12-04 20:51:00
4:51 PM,46.9,45.0,93,30.05,4.0,WNW,8.1,-,0.08,Rain,Light Rain,300,2012-12-04 21:51:00
5:20 PM,44.6,42.8,93,30.07,8.0,WNW,12.7,-,0.03,Rain,Rain,290,2012-12-04 22:20:00
5:51 PM,44.1,41.0,89,30.08,10.0,West,9.2,-,0.06,Rain,Light Rain,270,2012-12-04 22:51:00
6:51 PM,44.1,41.0,89,30.11,10.0,SW,8.1,-,0.03,Rain,Light Rain,220,2012-12-04 23:51:00
7:51 PM,44.1,42.1,93,30.10,10.0,SW,6.9,-,0.01,,Overcast,230,2012-12-05 00:51:00
8:51 PM,44.1,42.1,93,30.10,10.0,WSW,8.1,-,N/A,,Overcast,240,2012-12-05 01:51:00
9:51 PM,43.0,41.0,93,30.12,10.0,WSW,8.1,-,N/A,,Scattered Clouds,240,2012-12-05 02:51:00
10:51 PM,41.0,39.0,93,30.14,10.0,SW,5.8,-,N/A,,Scattered Clouds,220,2012-12-05 03:51:00
11:51 PM,42.8,37.4,81,30.14,10.0,SW,4.6,-,N/A,,Scattered Clouds,230,2012-12-05 04:51:00